M I D A S
Marine Information and Data Acquisition System
Tripno 1603 of the Zeeleeuw from 2008-09-08 06:17:00 to 2008-09-08 12:45:18
Back to CruiseResearch ActivitiesStationsMapUnderway DataData graphs

EquipmentUnitsComment
TimeDGPSUTC
LatitudeDGPSDM.mWGS84
LongitudeDGPSDM.mWGS84
TemperatureSBE03/SBE38deg celciusITS90
ConductivitySBE21S/mITS90
SalinitySBE21 Practical Salinity Units
ChlorophylAChelsea fluorimeterg/lCalibrated in Aceton
Missing or incorrect values are displayed as -999
Sea surface data collected by the RV Zeeleeuw from 2008-09-08 06:17:33 to 2008-09-08 12:58:44
Time Latitude Longitude Temperature Conductivity Salinity ChlorophylA
2008-09-08 06:18:38 51°13.622 2°56.048 18.5498 0.065054 0.358683 -1.209513
2008-09-08 06:19:38 51°13.631 2°56.016 18.5452 0.065054 0.358702 -1.209513
2008-09-08 06:20:38 51°13.653 2°55.928 18.5417 0.065054 0.358722 -1.209513
2008-09-08 06:21:38 51°13.698 2°55.819 18.5452 0.065054 0.358741 -1.209513
2008-09-08 06:22:38 51°13.76 2°55.719 18.5251 0.065054 0.358741 -1.209513
2008-09-08 06:23:38 51°13.837 2°55.645 18.5621 0.065054 0.358767 -1.209513
2008-09-08 06:24:38 51°13.899 2°55.632 18.5426 0.065054 0.358786 -1.209513
2008-09-08 06:25:38 51°13.935 2°55.65 18.542 0.065054 0.358799 -1.209513
2008-09-08 06:26:38 51°13.957 2°55.672 18.5506 0.065054 0.358818 -1.209513
2008-09-08 06:27:36 51°13.968 2°55.694 18.54 0.065054 0.358837 -1.209513
2008-09-08 06:28:35 51°13.974 2°55.7 18.5485 0.065054 0.358857 -1.209513
2008-09-08 06:29:34 51°13.98 2°55.697 18.5596 0.065054 0.358876 -1.244337
2008-09-08 06:30:34 51°14.014 2°55.634 18.5575 0.065054 0.358882 -1.209513
2008-09-08 06:31:34 51°14.105 2°55.463 18.5216 0.065054 0.358908 -1.209513
2008-09-08 06:32:34 51°14.227 2°55.306 18.541 0.065054 0.35894 -1.209513
2008-09-08 06:33:34 51°14.336 2°55.123 18.5297 0.065054 0.358953 -1.244337
2008-09-08 06:34:34 51°14.419 2°54.92 18.498 0.065054 0.358966 -1.209513
2008-09-08 06:35:34 51°14.489 2°54.777 18.506 0.065054 0.358992 -1.209513
2008-09-08 06:36:34 51°14.552 2°54.655 18.4921 0.065054 0.359011 -1.209513
2008-09-08 06:37:34 51°14.605 2°54.528 18.4831 0.065054 0.359037 -1.244337
2008-09-08 06:38:34 51°14.657 2°54.399 18.4879 0.065054 0.359056 -1.209513
2008-09-08 06:39:34 51°14.683 2°54.265 18.4856 0.065054 0.359075 -1.209513
2008-09-08 06:40:34 51°14.696 2°54.125 18.4965 0.065054 0.359101 -1.209513
2008-09-08 06:41:34 51°14.71 2°53.983 17.1767 4.190184 31.813463 1.228171
2008-09-08 06:42:34 51°14.721 2°53.841 17.1549 4.388089 33.833522 0.949579
2008-09-08 06:43:34 51°14.727 2°53.697 17.1583 4.3993 33.955913 0.845107
2008-09-08 06:44:34 51°14.732 2°53.551 17.1662 4.410095 34.048485 0.879931
2008-09-08 06:45:34 51°14.735 2°53.405 17.1713 4.400546 33.959908 0.810283
2008-09-08 06:46:34 51°14.74 2°53.259 17.1783 4.413936 34.072171 0.810283
2008-09-08 06:47:34 51°14.746 2°53.11 17.1774 4.412171 34.053539 0.810283
2008-09-08 06:48:34 51°14.749 2°52.966 17.1777 4.412794 34.058918 0.810283
2008-09-08 06:49:34 51°14.734 2°52.83 17.1728 4.411964 34.054457 0.879931
2008-09-08 06:50:34 51°14.712 2°52.695 17.1739 4.337024 33.409422 0.914755
2008-09-08 06:51:34 51°14.693 2°52.559 17.1698 4.421099 34.13881 0.914755
2008-09-08 06:52:34 51°14.673 2°52.424 17.1667 4.417465 34.108773 0.879931
2008-09-08 06:53:34 51°14.649 2°52.293 17.1637 4.423279 34.161051 0.845107
2008-09-08 06:54:34 51°14.625 2°52.161 17.1598 4.423175 34.162875 0.914755
2008-09-08 06:55:34 51°14.599 2°52.032 17.1584 4.421722 34.152353 0.845107
2008-09-08 06:56:34 51°14.575 2°51.899 17.157 4.41622 34.106837 0.879931
2008-09-08 06:57:34 51°14.552 2°51.766 17.1565 4.420165 34.141613 0.879931
2008-09-08 06:58:34 51°14.53 2°51.633 17.1541 4.418192 34.125924 0.879931
2008-09-08 06:59:34 51°14.502 2°51.503 17.154 4.422863 34.166987 0.914755
2008-09-08 07:00:34 51°14.474 2°51.372 17.1525 4.419542 34.138269 0.914755
2008-09-08 07:01:34 51°14.445 2°51.244 17.1555 4.422344 34.1625 0.879931
2008-09-08 07:02:34 51°14.416 2°51.116 17.1547 4.420476 34.144986 0.914755
2008-09-08 07:03:34 51°14.387 2°50.983 17.1541 4.424317 34.178191 0.914755
2008-09-08 07:04:34 51°14.354 2°50.857 17.1543 4.425459 34.188064 0.949579
2008-09-08 07:05:34 51°14.321 2°50.732 17.1554 4.42494 34.182215 0.949579
2008-09-08 07:06:34 51°14.288 2°50.606 17.1558 4.4266 34.197257 0.879931
2008-09-08 07:07:34 51°14.256 2°50.477 17.1537 4.426497 34.19704 0.845107
2008-09-08 07:08:34 51°14.221 2°50.349 17.1524 4.426081 34.194131 0.949579
2008-09-08 07:09:34 51°14.188 2°50.223 17.1549 4.425978 34.192552 0.914755
2008-09-08 07:10:34 51°14.154 2°50.097 17.1516 4.426289 34.195245 0.949579
2008-09-08 07:11:34 51°14.12 2°49.971 17.1518 4.426601 34.199981 0.914755
2008-09-08 07:12:34 51°14.086 2°49.843 17.1503 4.426497 34.199765 0.949579
2008-09-08 07:13:34 51°14.053 2°49.716 17.1498 4.426497 34.199765 0.949579
2008-09-08 07:14:34 51°14.02 2°49.59 17.1479 4.426082 34.196856 0.984403
2008-09-08 07:15:34 51°13.987 2°49.462 17.1482 4.425874 34.197104 0.949579
2008-09-08 07:16:34 51°13.953 2°49.337 17.1469 4.42577 34.195525 0.984403
2008-09-08 07:17:34 51°13.913 2°49.213 17.1473 4.426082 34.199581 0.984403
2008-09-08 07:18:34 51°13.873 2°49.091 17.147 4.426393 34.200911 0.949579
2008-09-08 07:19:34 51°13.834 2°48.969 17.1501 4.427016 34.206298 1.019227
2008-09-08 07:20:34 51°13.794 2°48.845 17.1506 4.427535 34.209423 0.914755
2008-09-08 07:21:34 51°13.754 2°48.723 17.1521 4.427639 34.208958 0.914755
2008-09-08 07:22:34 51°13.714 2°48.599 17.1539 4.428469 34.214777 0.879931
2008-09-08 07:23:34 51°13.674 2°48.475 17.1565 4.429299 34.219913 0.879931
2008-09-08 07:24:34 51°13.634 2°48.351 17.1586 4.429715 34.222141 0.949579
2008-09-08 07:25:34 51°13.593 2°48.228 17.1612 4.429818 34.220994 0.879931
2008-09-08 07:26:34 51°13.554 2°48.104 17.1631 4.43013 34.221642 0.879931
2008-09-08 07:27:34 51°13.513 2°47.983 17.1658 4.430545 34.223187 0.879931
2008-09-08 07:28:34 51°13.472 2°47.862 17.1663 4.430753 34.222938 0.845107
2008-09-08 07:29:34 51°13.447 2°47.73 17.1707 4.43096 34.22337 0.845107
2008-09-08 07:30:34 51°13.472 2°47.593 17.1751 4.431375 34.222871 0.845107
2008-09-08 07:31:34 51°13.536 2°47.481 17.1729 4.431687 34.223519 0.845107
2008-09-08 07:32:34 51°13.608 2°47.37 17.1806 4.431894 34.225314 0.879931
2008-09-08 07:33:34 51°13.677 2°47.256 17.1998 4.432725 34.224998 0.879931
2008-09-08 07:34:34 51°13.746 2°47.139 17.2012 4.434074 34.220317 0.845107
2008-09-08 07:35:34 51°13.82 2°47.031 17.2119 4.433243 34.215185 0.670986
2008-09-08 07:36:34 51°13.912 2°46.964 17.2289 4.433451 34.204052 0.601338
2008-09-08 07:37:34 51°14.008 2°46.911 17.2404 4.43397 34.195616 0.636162
2008-09-08 07:38:34 51°14.102 2°46.855 17.2488 4.434385 34.189009 0.670986
2008-09-08 07:39:34 51°14.197 2°46.8 17.2488 4.434904 34.188733 0.740634
2008-09-08 07:40:34 51°14.291 2°46.742 17.2407 4.435111 34.191883 0.775459
2008-09-08 07:41:34 51°14.384 2°46.683 17.2112 4.434904 34.200283 0.810283
2008-09-08 07:42:34 51°14.473 2°46.627 17.179 4.433036 34.209989 0.810283
2008-09-08 07:43:34 51°14.561 2°46.575 17.1564 4.430233 34.210958 0.810283
2008-09-08 07:44:34 51°14.647 2°46.523 17.1398 4.428573 34.216356 0.775459
2008-09-08 07:45:34 51°14.732 2°46.47 17.1353 4.428677 34.226799 0.810283
2008-09-08 07:46:34 51°14.818 2°46.417 17.1367 4.429507 34.235348 0.949579
2008-09-08 07:47:34 51°14.903 2°46.362 17.1338 4.43013 34.240736 1.088875
2008-09-08 07:48:34 51°14.987 2°46.309 17.1263 4.430545 34.246376 1.297819
2008-09-08 07:49:34 51°15.073 2°46.254 17.1182 4.430546 34.254568 1.541588
2008-09-08 07:50:34 51°15.159 2°46.203 17.1119 4.430234 34.258703 1.64606
2008-09-08 07:51:34 51°15.245 2°46.151 17.1079 4.429923 34.25874 1.611236
2008-09-08 07:52:34 51°15.325 2°46.089 17.1003 4.429196 34.257915 1.367467
2008-09-08 07:53:34 51°15.392 2°46.005 17.0993 4.428677 34.258205 1.332643
2008-09-08 07:54:34 51°15.456 2°45.918 17.1035 4.428989 34.260901 1.47194
2008-09-08 07:55:34 51°15.518 2°45.825 17.1139 4.429819 34.263991 1.576412
2008-09-08 07:56:34 51°15.574 2°45.728 17.1293 4.430442 34.2605 1.541588
2008-09-08 07:57:34 51°15.625 2°45.627 17.1447 4.431064 34.252232 1.437116
2008-09-08 07:58:34 51°15.674 2°45.52 17.1567 4.431895 34.247132 1.402292
2008-09-08 07:59:34 51°15.718 2°45.408 17.1773 4.433452 34.249683 1.367467
2008-09-08 08:00:34 51°15.744 2°45.29 17.1947 4.436566 34.257513 1.506764
2008-09-08 08:01:34 51°15.765 2°45.169 17.1989 4.438953 34.26724 1.402292
2008-09-08 08:02:34 51°15.778 2°45.049 17.1972 4.440095 34.275062 1.437116
2008-09-08 08:03:34 51°15.777 2°44.932 17.1949 4.440822 34.282705 1.402292
2008-09-08 08:04:34 51°15.776 2°44.811 17.194 4.441444 34.290817 1.367467
2008-09-08 08:05:34 51°15.776 2°44.689 17.1917 4.441444 34.290817 1.367467
2008-09-08 08:06:34 51°15.777 2°44.568 17.1938 4.44186 34.295088 1.367467
2008-09-08 08:07:34 51°15.778 2°44.447 17.1938 4.442067 34.2962 1.402292
2008-09-08 08:08:34 51°15.779 2°44.324 17.1928 4.441548 34.291714 1.332643
2008-09-08 08:09:34 51°15.78 2°44.203 17.1918 4.44186 34.293723 1.332643
2008-09-08 08:10:34 51°15.781 2°44.082 17.1923 4.442275 34.297994 1.367467
2008-09-08 08:11:35 51°15.777 2°43.961 17.1921 4.442483 34.299789 1.367467
2008-09-08 08:12:34 51°15.769 2°43.847 17.1897 4.442483 34.300471 1.437116
2008-09-08 08:13:34 51°15.754 2°43.734 17.19 4.442586 34.301369 1.437116
2008-09-08 08:14:34 51°15.736 2°43.609 17.1906 4.442171 34.298462 1.437116
2008-09-08 08:15:34 51°15.719 2°43.478 17.1928 4.441756 34.294873 1.541588
2008-09-08 08:16:34 51°15.699 2°43.346 17.191 4.442483 34.299789 1.437116
2008-09-08 08:17:34 51°15.679 2°43.214 17.1914 4.443002 34.303593 1.541588
2008-09-08 08:18:34 51°15.66 2°43.083 17.1899 4.443105 34.30449 1.680884
2008-09-08 08:19:34 51°15.641 2°42.947 17.1913 4.443209 34.307435 1.64606
2008-09-08 08:20:34 51°15.624 2°42.809 17.1865 4.443624 34.311707 1.785356
2008-09-08 08:21:34 51°15.606 2°42.672 17.1851 4.44404 34.317345 1.959476
2008-09-08 08:22:34 51°15.586 2°42.533 17.1829 4.444663 34.324778 2.063949
2008-09-08 08:23:34 51°15.566 2°42.397 17.1801 4.445493 34.334008 2.168421
2008-09-08 08:24:34 51°15.546 2°42.262 17.1796 4.44622 34.340975 2.342541
2008-09-08 08:25:34 51°15.526 2°42.126 17.1793 4.446843 34.34636 2.655957
2008-09-08 08:26:34 51°15.502 2°41.993 17.1803 4.445701 34.33717 2.725606
2008-09-08 08:27:34 51°15.48 2°41.859 17.1807 4.44705 34.349523 2.830078
2008-09-08 08:28:34 51°15.457 2°41.725 17.1836 4.44705 34.347472 2.690782
2008-09-08 08:29:34 51°15.435 2°41.59 17.1853 4.446427 34.340719 2.447013
2008-09-08 08:30:34 51°15.408 2°41.457 17.187 4.445701 34.33307 2.272893
2008-09-08 08:31:34 51°15.372 2°41.33 17.1915 4.444766 34.321578 2.063949
2008-09-08 08:32:34 51°15.328 2°41.208 17.1929 4.444351 34.315257 1.959476
2008-09-08 08:33:34 51°15.282 2°41.089 17.1953 4.443832 34.30804 1.855004
2008-09-08 08:34:34 51°15.235 2°40.973 17.1985 4.443209 34.30061 1.82018
2008-09-08 08:35:34 51°15.188 2°40.857 17.198 4.44269 34.29476 1.785356
2008-09-08 08:36:34 51°15.143 2°40.741 17.1973 4.442171 34.289593 1.680884
2008-09-08 08:37:34 51°15.097 2°40.623 17.1975 4.441756 34.288051 1.541588
2008-09-08 08:38:34 51°15.051 2°40.503 17.1997 4.441756 34.287369 1.437116
2008-09-08 08:39:34 51°15.004 2°40.384 17.1987 4.44186 34.286902 1.367467
2008-09-08 08:40:34 51°14.957 2°40.265 17.1996 4.442171 34.288911 1.262995
2008-09-08 08:41:35 51°14.91 2°40.144 17.1985 4.442482 34.29092 1.228171
2008-09-08 08:42:34 51°14.864 2°40.025 17.1996 4.442379 34.290705 1.228171
2008-09-08 08:43:35 51°14.816 2°39.903 17.2018 4.442379 34.290023 1.158523
2008-09-08 08:44:34 51°14.77 2°39.784 17.201 4.442586 34.289771 1.123699
2008-09-08 08:45:34 51°14.721 2°39.661 17.2006 4.440925 34.276783 1.123699
2008-09-08 08:46:34 51°14.676 2°39.535 17.2014 4.440821 34.275886 1.123699
2008-09-08 08:47:34 51°14.631 2°39.409 17.2031 4.441652 34.281017 1.088875
2008-09-08 08:48:34 51°14.584 2°39.286 17.2013 4.441029 34.274954 1.054051
2008-09-08 08:49:34 51°14.537 2°39.163 17.2039 4.442482 34.288192 1.019227
2008-09-08 08:50:34 51°14.488 2°39.041 17.1989 4.442379 34.287977 1.054051
2008-09-08 08:51:34 51°14.43 2°38.928 17.1949 4.44186 34.285538 1.123699
2008-09-08 08:52:35 51°14.371 2°38.814 17.1918 4.441133 34.28335 1.193347
2008-09-08 08:53:34 51°14.316 2°38.701 17.1906 4.440822 34.282023 1.262995
2008-09-08 08:54:35 51°14.257 2°38.585 17.1892 4.440614 34.281593 1.262995
2008-09-08 08:55:34 51°14.199 2°38.472 17.1872 4.440303 34.280266 1.228171
2008-09-08 08:56:35 51°14.14 2°38.356 17.1895 4.440199 34.280733 1.158523
2008-09-08 08:57:34 51°14.084 2°38.244 17.1873 4.440095 34.279153 1.019227
2008-09-08 08:58:35 51°14.027 2°38.128 17.1897 4.43968 34.275565 0.984403
2008-09-08 08:59:35 51°13.968 2°38.014 17.1915 4.438745 34.265446 0.845107
2008-09-08 09:00:35 51°13.918 2°37.888 17.1955 4.438122 34.258019 0.810283
2008-09-08 09:01:35 51°13.872 2°37.758 17.202 4.437707 34.249662 0.810283
2008-09-08 09:02:34 51°13.827 2°37.629 17.2088 4.437707 34.244894 0.879931
2008-09-08 09:03:35 51°13.781 2°37.497 17.2168 4.438122 34.243033 0.810283
2008-09-08 09:04:34 51°13.739 2°37.366 17.2196 4.438641 34.24275 0.810283
2008-09-08 09:05:34 51°13.7 2°37.23 17.224 4.439264 34.244725 0.775459
2008-09-08 09:06:35 51°13.662 2°37.09 17.2271 4.439679 34.244908 0.810283
2008-09-08 09:07:34 51°13.625 2°36.954 17.2303 4.440198 34.246667 0.810283
2008-09-08 09:08:34 51°13.588 2°36.817 17.2327 4.44051 34.246633 0.845107
2008-09-08 09:09:34 51°13.554 2°36.676 17.2376 4.440821 34.24728 0.810283
2008-09-08 09:10:34 51°13.522 2°36.533 17.237 4.441029 34.247031 0.845107
2008-09-08 09:11:34 51°13.49 2°36.389 17.241 4.441132 34.245886 0.810283
2008-09-08 09:12:34 51°13.457 2°36.246 17.2426 4.441132 34.243845 0.775459
2008-09-08 09:13:34 51°13.423 2°36.101 17.2465 4.441547 34.245388 0.810283
2008-09-08 09:14:34 51°13.389 2°35.955 17.2523 4.441651 34.244244 0.810283
2008-09-08 09:15:35 51°13.355 2°35.809 17.25 4.441859 34.243315 0.810283
2008-09-08 09:16:34 51°13.321 2°35.668 17.2521 4.44217 34.243282 0.810283
2008-09-08 09:17:35 51°13.288 2°35.524 17.2522 4.442378 34.244394 0.810283
2008-09-08 09:18:34 51°13.255 2°35.383 17.2525 4.442585 34.246185 0.775459
2008-09-08 09:19:35 51°13.221 2°35.239 17.2527 4.442482 34.24597 0.775459
2008-09-08 09:20:34 51°13.188 2°35.099 17.2538 4.441755 34.239019 0.70581
2008-09-08 09:21:35 51°13.155 2°34.956 17.2574 4.440821 34.228239 0.670986
2008-09-08 09:22:35 51°13.122 2°34.816 17.2628 4.439056 34.210296 0.601338
2008-09-08 09:23:34 51°13.089 2°34.68 17.2661 4.437499 34.192791 0.53169
2008-09-08 09:24:35 51°13.056 2°34.535 17.2705 4.436357 34.180228 0.462042
2008-09-08 09:25:34 51°13.024 2°34.398 17.274 4.435422 34.16878 0.462042
2008-09-08 09:26:35 51°12.991 2°34.256 17.2733 4.434903 34.162271 0.462042
2008-09-08 09:27:34 51°12.961 2°34.118 17.277 4.434592 34.15823 0.392394
2008-09-08 09:28:35 51°12.928 2°33.977 17.278 4.434488 34.155979 0.392394
2008-09-08 09:29:35 51°12.897 2°33.837 17.2778 4.434592 34.154841 0.427218
2008-09-08 09:30:35 51°12.865 2°33.696 17.2789 4.434696 34.156414 0.427218
2008-09-08 09:31:35 51°12.833 2°33.556 17.2806 4.435111 34.159993 0.427218
2008-09-08 09:32:35 51°12.802 2°33.415 17.2803 4.435422 34.161323 0.462042
2008-09-08 09:33:35 51°12.771 2°33.274 17.2781 4.435526 34.162217 0.462042
2008-09-08 09:34:35 51°12.738 2°33.132 17.2754 4.435837 34.16558 0.462042
2008-09-08 09:35:35 51°12.705 2°32.99 17.2758 4.436253 34.169838 0.462042
2008-09-08 09:36:34 51°12.673 2°32.85 17.2762 4.436357 34.172089 0.427218
2008-09-08 09:37:35 51°12.64 2°32.705 17.2718 4.43646 34.176375 0.462042
2008-09-08 09:38:35 51°12.608 2°32.563 17.2661 4.436772 34.181095 0.462042
2008-09-08 09:39:35 51°12.575 2°32.422 17.2639 4.437083 34.186495 0.462042
2008-09-08 09:40:36 51°12.54 2°32.278 17.2657 4.437499 34.191433 0.496866
2008-09-08 09:41:35 51°12.507 2°32.138 17.262 4.437914 34.195693 0.53169
2008-09-08 09:42:36 51°12.472 2°31.992 17.267 4.438121 34.195448 0.496866
2008-09-08 09:43:35 51°12.437 2°31.851 17.2651 4.438537 34.199708 0.53169
2008-09-08 09:44:35 51°12.401 2°31.708 17.2656 4.439471 34.207766 0.566514
2008-09-08 09:45:36 51°12.363 2°31.561 17.2642 4.44134 34.223883 0.566514
2008-09-08 09:46:35 51°12.326 2°31.422 17.2659 4.442066 34.23083 0.566514
2008-09-08 09:47:35 51°12.289 2°31.277 17.2697 4.443935 34.244231 0.53169
2008-09-08 09:48:35 51°12.252 2°31.132 17.2743 4.444973 34.251146 0.496866
2008-09-08 09:49:36 51°12.215 2°30.986 17.2764 4.445803 34.25423 0.496866
2008-09-08 09:50:35 51°12.18 2°30.845 17.2771 4.446218 34.255093 0.392394
2008-09-08 09:51:35 51°12.143 2°30.701 17.2794 4.446322 34.255308 0.392394
2008-09-08 09:52:35 51°12.106 2°30.556 17.2817 4.446737 34.25753 0.35757
2008-09-08 09:53:35 51°12.068 2°30.41 17.2838 4.447464 34.260398 0.322746
2008-09-08 09:54:35 51°12.029 2°30.264 17.2839 4.447983 34.264195 0.322746
2008-09-08 09:55:35 51°11.991 2°30.118 17.282 4.448087 34.26577 0.35757
2008-09-08 09:56:36 51°11.951 2°29.97 17.2835 4.448087 34.267129 0.392394
2008-09-08 09:57:35 51°11.913 2°29.828 17.2797 4.447879 34.266699 0.392394
2008-09-08 09:58:35 51°11.874 2°29.681 17.2812 4.447672 34.265588 0.427218
2008-09-08 09:59:35 51°11.835 2°29.533 17.2874 4.448814 34.271357 0.35757
2008-09-08 10:00:36 51°11.794 2°29.382 17.2936 4.450163 34.277555 0.322746
2008-09-08 10:01:35 51°11.755 2°29.234 17.299 4.450993 34.281316 0.322746
2008-09-08 10:02:35 51°11.715 2°29.086 17.2979 4.447775 34.250853 0.287922
2008-09-08 10:03:36 51°11.675 2°28.934 17.2971 4.451409 34.282177 0.322746
2008-09-08 10:04:35 51°11.638 2°28.788 17.3003 4.451616 34.283287 0.322746
2008-09-08 10:05:35 51°11.599 2°28.638 17.3045 4.45172 34.282822 0.322746
2008-09-08 10:06:35 51°11.559 2°28.486 17.3025 4.452031 34.282788 0.287922
2008-09-08 10:07:36 51°11.523 2°28.328 17.3059 4.452031 34.282108 0.287922
2008-09-08 10:08:35 51°11.495 2°28.172 17.3062 4.452031 34.281429 0.322746
2008-09-08 10:09:35 51°11.482 2°28.013 17.3104 4.452031 34.27871 0.287922
2008-09-08 10:10:35 51°11.517 2°27.867 17.3114 4.452343 34.280035 0.253098
2008-09-08 10:11:36 51°11.559 2°27.719 17.316 4.453173 34.285155 0.253098
2008-09-08 10:12:35 51°11.599 2°27.576 17.3202 4.454419 34.292493 0.218274
2008-09-08 10:13:35 51°11.642 2°27.434 17.3261 4.456184 34.302945 0.218274
2008-09-08 10:14:36 51°11.7 2°27.314 17.3335 4.458364 34.315613 0.18345
2008-09-08 10:15:35 51°11.785 2°27.26 17.334 4.459713 34.323163 0.18345
2008-09-08 10:16:35 51°11.873 2°27.203 17.3387 4.460232 34.326955 0.18345
2008-09-08 10:17:35 51°11.962 2°27.143 17.3333 4.460855 34.331642 0.18345
2008-09-08 10:18:36 51°12.059 2°27.111 17.333 4.460855 34.333003 0.18345
2008-09-08 10:19:36 51°12.156 2°27.102 17.3323 4.460544 34.330999 0.18345
2008-09-08 10:20:35 51°12.252 2°27.093 17.3276 4.460128 34.330141 0.18345
2008-09-08 10:21:36 51°12.349 2°27.106 17.3237 4.460129 34.332182 0.18345
2008-09-08 10:22:35 51°12.441 2°27.146 17.3223 4.46044 34.339629 0.18345
2008-09-08 10:23:35 51°12.532 2°27.198 17.3191 4.460959 34.345465 0.18345
2008-09-08 10:24:35 51°12.619 2°27.26 17.323 4.460855 34.343209 0.18345
2008-09-08 10:25:35 51°12.698 2°27.345 17.3246 4.460129 34.336945 0.18345
2008-09-08 10:26:36 51°12.774 2°27.44 17.3228 4.460025 34.334009 0.18345
2008-09-08 10:27:35 51°12.853 2°27.534 17.3222 4.460025 34.33537 0.218274
2008-09-08 10:28:35 51°12.954 2°27.653 17.3247 4.460232 34.336479 0.18345
2008-09-08 10:29:35 51°13.092 2°27.822 17.329 4.460648 34.338697 0.253098
2008-09-08 10:30:35 51°13.249 2°28.012 17.3278 4.46127 34.342704 0.427218
2008-09-08 10:31:35 51°13.41 2°28.2 17.3305 4.462516 34.350719 0.392394
2008-09-08 10:32:35 51°13.569 2°28.386 17.3299 4.464073 34.363459 0.35757
2008-09-08 10:33:35 51°13.731 2°28.567 17.3203 4.467396 34.396864 0.287922
2008-09-08 10:34:35 51°13.887 2°28.762 17.3189 4.469057 34.413912 0.253098
2008-09-08 10:35:35 51°14.034 2°28.969 17.3247 4.469368 34.41728 0.253098
2008-09-08 10:36:35 51°14.183 2°29.179 17.3286 4.469264 34.412975 0.218274
2008-09-08 10:37:35 51°14.332 2°29.388 17.3321 4.469679 34.409736 0.218274
2008-09-08 10:38:35 51°14.481 2°29.601 17.3387 4.469887 34.408799 0.218274
2008-09-08 10:39:35 51°14.631 2°29.812 17.3439 4.47051 34.408715 0.253098
2008-09-08 10:40:34 51°14.777 2°30.02 17.352 4.471444 34.410633 0.287922
2008-09-08 10:41:35 51°14.93 2°30.231 17.3537 4.471859 34.412849 0.322746
2008-09-08 10:42:35 51°15.08 2°30.439 17.3512 4.472275 34.415064 0.322746
2008-09-08 10:43:35 51°15.23 2°30.647 17.3488 4.472378 34.415958 0.322746
2008-09-08 10:44:35 51°15.365 2°30.877 17.3478 4.472378 34.41664 0.287922
2008-09-08 10:45:34 51°15.486 2°31.12 17.3396 4.471652 34.415148 0.253098
2008-09-08 10:46:34 51°15.6 2°31.378 17.3151 4.470095 34.412634 0.18345
2008-09-08 10:47:35 51°15.695 2°31.661 17.3072 4.468019 34.407689 0.148626
2008-09-08 10:48:35 51°15.763 2°31.956 17.3079 4.466981 34.410333 0.18345
2008-09-08 10:49:35 51°15.78 2°32.26 17.3048 4.466773 34.404449 0.218274
2008-09-08 10:50:35 51°15.68 2°32.5 17.3001 4.465735 34.399588 0.218274
2008-09-08 10:51:35 51°15.555 2°32.641 17.2951 4.465112 34.396944 0.18345
2008-09-08 10:52:35 51°15.43 2°32.714 17.2959 4.464593 34.389057 0.148626
2008-09-08 10:53:35 51°15.324 2°32.829 17.2964 4.463866 34.384835 0.113802
2008-09-08 10:54:35 51°15.221 2°32.9 17.2972 4.46314 34.381294 0.113802
2008-09-08 10:55:35 51°15.197 2°33.003 17.2943 4.462309 34.37754 0.009329
2008-09-08 10:56:35 51°15.163 2°33.199 17.2926 4.461998 34.375535 -0.025495
2008-09-08 10:57:35 51°15.113 2°33.486 17.2953 4.461894 34.373276 0.009329
2008-09-08 10:58:35 51°15.057 2°33.784 17.3059 4.460337 34.355757 0.078977
2008-09-08 10:59:35 51°14.981 2°34.072 17.3069 4.45826 34.330364 0.044153
2008-09-08 11:00:35 51°14.857 2°34.315 17.3215 4.454523 34.296787 0.078977
2008-09-08 11:01:35 51°14.729 2°34.556 17.3313 4.457326 34.305988 0.113802
2008-09-08 11:02:35 51°14.609 2°34.805 17.3084 4.457429 34.305523 0.253098
2008-09-08 11:03:35 51°14.566 2°35.103 17.2791 4.454523 34.30971 0.670986
2008-09-08 11:04:35 51°14.516 2°35.404 17.266 4.452758 34.308101 0.810283
2008-09-08 11:05:35 51°14.449 2°35.695 97.2652 4.450786 34.309469 0.984403
2008-09-08 11:06:35 51°14.337 2°35.942 17.2369 4.449644 34.303701 0.949579
2008-09-08 11:07:35 51°14.193 2°36.145 17.2398 4.447568 34.295317 0.810283
2008-09-08 11:08:35 51°14.053 2°36.355 17.2372 4.44653 34.284313 0.810283
2008-09-08 11:09:35 51°13.913 2°36.566 17.2346 4.445285 34.276965 0.810283
2008-09-08 11:10:35 51°13.774 2°36.779 17.2104 4.443728 34.275779 0.914755
2008-09-08 11:11:35 51°13.635 2°36.995 17.2086 4.441236 34.262439 0.810283
2008-09-08 11:12:35 51°13.499 2°37.212 17.2124 4.43916 34.245871 0.775459
2008-09-08 11:13:35 51°13.365 2°37.422 17.2111 4.439056 34.242933 0.636162
2008-09-08 11:14:35 51°13.25 2°37.542 17.198 4.439264 34.249491 0.636162
2008-09-08 11:15:36 51°13.164 2°37.614 17.1984 4.437707 34.243532 0.53169
2008-09-08 11:16:35 51°13.103 2°37.685 17.2012 4.436565 34.232988 0.496866
2008-09-08 11:17:35 51°13.071 2°37.711 17.2014 4.435838 34.225351 0.496866
2008-09-08 11:18:35 51°13.056 2°37.718 17.2019 4.435319 34.219508 0.462042
2008-09-08 11:19:35 51°13.047 2°37.723 17.2043 4.434593 34.216634 0.427218
2008-09-08 11:20:35 51°13.042 2°37.731 17.2031 4.434697 34.215489 0.427218
2008-09-08 11:21:35 51°13.046 2°37.736 17.2004 4.4348 34.214345 0.392394
2008-09-08 11:22:35 51°13.04 2°37.745 17.2042 4.434697 34.213449 0.462042
2008-09-08 11:23:35 51°13.003 2°37.742 17.2061 4.4348 34.210944 0.496866
2008-09-08 11:24:35 51°12.973 2°37.686 17.2001 4.434074 34.20807 0.462042
2008-09-08 11:25:35 51°12.967 2°37.663 17.1946 4.432828 34.204794 0.427218
2008-09-08 11:26:35 51°12.966 2°37.665 17.1963 4.432724 34.203217 0.427218
2008-09-08 11:27:35 51°12.965 2°37.673 17.1979 4.432621 34.203001 0.427218
2008-09-08 11:28:35 51°12.971 2°37.676 17.2004 4.432413 34.201208 0.462042
2008-09-08 11:29:35 51°12.98 2°37.675 17.1967 4.432724 34.201177 0.427218
2008-09-08 11:30:35 51°12.985 2°37.676 17.1989 4.432517 34.200744 0.392394
2008-09-08 11:31:35 51°12.987 2°37.68 17.1986 4.432724 34.200497 0.35757
2008-09-08 11:32:35 51°12.988 2°37.684 17.2026 4.432828 34.201393 0.35757
2008-09-08 11:33:35 51°12.993 2°37.686 17.2122 4.433347 34.200435 0.322746
2008-09-08 11:34:35 51°12.995 2°37.689 17.2219 4.434177 34.200807 0.253098
2008-09-08 11:35:35 51°12.996 2°37.694 17.2225 4.435008 34.201858 0.218274
2008-09-08 11:36:35 51°12.999 2°37.696 17.223 4.434904 34.201642 0.18345
2008-09-08 11:37:35 51°13.002 2°37.7 17.2206 4.4348 34.202105 0.18345
2008-09-08 11:38:35 51°13.002 2°37.704 17.2189 4.434696 34.201889 0.18345
2008-09-08 11:39:35 51°13.001 2°37.71 17.2185 4.434489 34.200776 0.218274
2008-09-08 11:40:35 51°13.002 2°37.715 17.2205 4.4348 34.200746 0.218274
2008-09-08 11:41:35 51°13.004 2°37.721 17.2238 4.434904 34.200962 0.18345
2008-09-08 11:42:35 51°13.004 2°37.727 17.2283 4.435319 34.201148 0.148626
2008-09-08 11:43:35 51°13.003 2°37.731 17.2269 4.435423 34.200685 0.18345
2008-09-08 11:44:35 51°13.001 2°37.734 17.2239 4.435319 34.201148 0.148626
2008-09-08 11:45:35 51°13.018 2°37.74 17.2298 4.434904 34.200283 0.113802
2008-09-08 11:46:36 51°13.068 2°37.873 17.2089 4.4348 34.200746 0.35757
2008-09-08 11:47:35 51°13.124 2°38.087 17.2113 4.433762 34.199261 0.35757
2008-09-08 11:48:35 51°13.183 2°38.328 17.2119 4.433243 34.198179 0.392394
2008-09-08 11:49:35 51°13.247 2°38.59 17.2101 4.433347 34.196356 0.392394
2008-09-08 11:50:35 51°13.315 2°38.856 17.2096 4.433658 34.197006 0.496866
2008-09-08 11:51:35 51°13.383 2°39.128 17.2101 4.434489 34.208255 0.670986
2008-09-08 11:52:35 51°13.448 2°39.408 17.2199 4.435319 34.209305 0.670986
2008-09-08 11:53:35 51°13.511 2°39.695 17.2313 4.435734 34.204732 0.636162
2008-09-08 11:54:35 51°13.573 2°39.978 17.2407 4.436149 34.199483 0.636162
2008-09-08 11:55:35 51°13.638 2°40.264 17.2492 4.437499 34.202976 0.740634
2008-09-08 11:56:35 51°13.7 2°40.55 17.2523 4.439471 34.214557 0.914755
2008-09-08 11:57:35 51°13.764 2°40.836 17.2531 4.441443 34.228855 1.158523
2008-09-08 11:58:35 51°13.825 2°41.124 17.239997 4.44217 34.242602 1.402292
2008-09-08 11:59:35 51°13.889 2°41.41 17.2265 4.442274 34.25098 1.506764
2008-09-08 12:00:35 51°13.952 2°41.694 17.2135 4.441132 34.254733 1.262995
2008-09-08 12:01:35 51°14.012 2°41.979 17.2016 4.438537 34.241854 0.845107
2008-09-08 12:02:35 51°14.071 2°42.267 17.1869 4.436565 34.232988 0.70581
2008-09-08 12:03:35 51°14.137 2°42.551 17.1815 4.434697 34.229102 0.636162
2008-09-08 12:04:35 51°14.202 2°42.835 17.1499 4.43397 34.239171 0.566514
2008-09-08 12:05:35 51°14.263 2°43.122 17.139 4.432829 34.247708 0.670986
2008-09-08 12:06:35 51°14.325 2°43.407 17.1531 4.432933 34.245195 0.740634
2008-09-08 12:07:35 51°14.385 2°43.694 17.1586 4.433659 34.245341 0.810283
2008-09-08 12:08:35 51°14.449 2°43.984 17.1746 4.434282 34.243226 0.845107
2008-09-08 12:09:35 51°14.515 2°44.267 17.1814 4.435424 34.240829 0.810283
2008-09-08 12:10:35 51°14.574 2°44.555 17.1831 4.435839 34.238286 0.740634
2008-09-08 12:11:35 51°14.618 2°44.851 17.1831 4.435423 34.232656 0.670986
2008-09-08 12:12:35 51°14.644 2°45.151 17.1845 4.434697 34.228421 0.670986
2008-09-08 12:13:35 51°14.673 2°45.449 17.1935 4.434593 34.224801 0.636162
2008-09-08 12:14:35 51°14.703 2°45.746 17.2078 4.435112 34.220436 0.670986
2008-09-08 12:15:35 51°14.739 2°46.04 17.2179 4.43615 34.219196 0.740634
2008-09-08 12:16:35 51°14.769 2°46.338 17.2319 4.437395 34.219749 0.775459
2008-09-08 12:17:35 51°14.789 2°46.641 17.2591 4.439264 34.219561 0.879931
2008-09-08 12:18:35 51°14.79 2°46.946 17.2673 4.441339 34.222524 0.984403
2008-09-08 12:19:35 51°14.79 2°47.253 17.2764 4.442585 34.223759 0.879931
2008-09-08 12:20:35 51°14.787 2°47.558 17.2821 4.443104 34.22416 0.845107
2008-09-08 12:21:35 51°14.781 2°47.859 17.2811 4.443623 34.226599 0.879931
2008-09-08 12:22:35 51°14.777 2°48.163 17.2791 4.444038 34.228821 0.845107
2008-09-08 12:23:35 51°14.773 2°48.466 17.2839 4.444246 34.228574 0.845107
2008-09-08 12:24:35 51°14.772 2°48.774 17.2635 4.444038 34.234254 0.879931
2008-09-08 12:25:35 51°14.769 2°49.081 17 4.442689 34.241641 1.158523
2008-09-08 12:26:35 51°14.769 2°49.386 17.2126 4.439991 34.248958 1.750532
2008-09-08 12:27:35 51°14.769 2°49.689 17.2206 4.439264 34.244725 1.889828
2008-09-08 12:28:35 51°14.763 2°49.992 17.2196 4.438641 34.233223 1.64606
2008-09-08 12:29:35 51°14.758 2°50.298 17.2235 4.437395 34.217709 1.367467
2008-09-08 12:30:35 51°14.756 2°50.602 17.2157 4.436046 34.20946 1.158523
2008-09-08 12:31:35 51°14.761 2°50.907 17.2024 4.434489 34.202816 0.984403
2008-09-08 12:32:35 51°14.757 2°51.208 17.1832 4.432724 34.199137 0.949579
2008-09-08 12:33:35 51°14.757 2°51.513 17.1697 4.430025 34.190107 0.879931
2008-09-08 12:34:35 51°14.756 2°51.817 17.1573 4.426808 34.178629 0.810283
2008-09-08 12:35:35 51°14.732 2°52.119 17.1718 4.426289 34.171423 0.879931
2008-09-08 12:36:35 51°14.714 2°52.421 17.2001 4.42743 34.16769 0.879931
2008-09-08 12:37:35 51°14.699 2°52.724 17.2252 4.429402 34.160943 0.845107
2008-09-08 12:38:35 51°14.677 2°53.019 17.2166 4.430855 34.154481 0.879931
2008-09-08 12:39:35 51°14.66 2°53.319 17.4139 0.228497 1.39113 -1.313985
2008-09-08 12:40:35 51°14.638 2°53.624 17.4968 0.335148 2.085495 -1.313985
2008-09-08 12:41:35 51°14.601 2°53.928 17.5583 0.223556 1.359414 -1.313985
2008-09-08 12:42:35 51°14.552 2°54.231 17.6237 0.192779 1.163103 -1.313985
2008-09-08 12:43:35 51°14.5 2°54.527 17.7008 0.233129 1.420772 -1.313985
2008-09-08 12:44:35 51°14.425 2°54.813 17.7841 0.147903 0.880555 -1.313985
2008-09-08 12:45:35 51°14.338 2°55.096 17.8525 0.166944 0.999661 -1.313985
2008-09-08 12:46:39 51°14.202 2°55.339 17.9207 0.197205 1.190771 -1.313985
2008-09-08 12:47:39 51°14.079 2°55.451 17.9707 0.229526 1.397005 -1.313985
2008-09-08 12:48:40 51°13.966 2°55.533 18.0303 0.230041 1.400145 -1.313985
2008-09-08 12:49:39 51°13.862 2°55.607 18.0888 0.248982 1.52182 -1.313985
2008-09-08 12:50:39 51°13.775 2°55.684 18.1318 0.209454 1.268077 -1.313985
2008-09-08 12:51:39 51°13.707 2°55.788 18.2123 0.222938 1.35401 -1.313985
2008-09-08 12:52:39 51°13.661 2°55.893 18.2942 1.608992 10.525303 -1.313985
2008-09-08 12:53:39 51°13.637 2°55.984 18.4713 0.174353 0.961649 -1.313985
2008-09-08 12:54:39 51°13.628 2°56.036 18.5405 0.07802 0.409508 -1.313985
2008-09-08 12:55:39 51°13.622 2°56.046 18.4834 0.082342 0.432577 -1.313985
2008-09-08 12:56:39 51°13.622 2°56.049 18.5551 0.084709 0.446707 -1.348809
2008-09-08 12:57:39 51°13.623 2°56.049 18.5738 0.082548 0.435014 -1.313985
2008-09-08 12:58:39 51°13.623 2°56.048 18.6194 0.081107 0.427366 -1.313985